Terminal Aerodrome Forecast
Issued by NWS Sioux Falls, SD

Home | Current Version | Previous Version | Graphics & Text | Print | Product List | Glossary Off
Versions: 1 2 3 4 5 6 7 8 9 10 11 12 13 14 15 16 17 18 19 20 21 22 23 24 25 26 27 28 29 30 31 32 33 34 35 36 37 38 39 40

000
FTUS43 KFSD 282345
TAFSUX
TAF
KSUX 282345Z 2900/2924 15007KT P6SM SCT025 BKN080
      TEMPO 2900/2902 6SM SHRA
     FM290800 12007KT 4SM BR BKN007
     FM291000 13008KT 1 1/2SM BR VV004
     FM291500 22006KT 4SM BR OVC008
     FM291800 27006KT P6SM SCT035=

USA.gov is the U.S. government's official web portal to all federal, state and local government web resources and services.